Wind Cave National Park, SD

4:25 PM MDT on May 22, 2015 (GMT -0600)
Hay Creek Road | | Change Station
CLOSE
Current Station
Personal Weather Station
Location: Custer, SD
Elevation: 5325 ft
Nearby Weather Stations

Elev 5325 ft 43.70 °N, 103.67 °W | Updated 14 seconds ago

Overcast
Overcast
48.0 °F
Feels Like 46 °F
N
5.6
Wind Variable Wind from SE
Gusts 7.4 mph

Today
High -- | Low -- °F
--% Chance of Precip.
Yesterday
High -- | Low -- °F
Precip. -- in
5:22 AM 8:20 PM
Waxing Crescent, 24% visible
Pressure 30.03 in
Visibility 10.0 miles
Clouds Mostly Cloudy 2300 ft
Overcast 2800 ft
Windchill 46 °F
Dew Point 40 °F
Humidity 74%
Rainfall 0.00 in
Snow Depth Not available.
UV 2.0 out of 12
Pollen 7.70 out of 12
Air Quality Not available.
Flu Activity Sporadic
METAR KCUT 222153Z AUTO 14008KT 10SM BKN023 OVC028 08/03 A3009 RMK AO2 SLP168 T00830028

More Conditions Fewer Conditions

Pressure 30.03 in
Visibility 10.0 miles
Clouds Mostly Cloudy 2300 ft
Overcast 2800 ft
Windchill 46 °F
Dew Point 40 °F
Humidity 74%
Rainfall 0.00 in
Snow Depth Not available.
UV 2.0 out of 12
Pollen 7.70 out of 12
Air Quality Not available.
Flu Activity Sporadic
METAR KCUT 222153Z AUTO 14008KT 10SM BKN023 OVC028 08/03 A3009 RMK AO2 SLP168 T00830028

More Conditions Fewer Conditions

10-Day Weather Forecast

Almanac

Astronomy

May. 22, 2015 Rise Set
Actual Time
Civil Twilight
Nautical Twilight
Astronomical Twilight
Moon
Length of Visible Light
Length of Day
Tomorrow will be .
, % of the Moon is Illuminated

Today's Extremes

State Highs State Lows

Community

WunderPhotos

Upload Photos

1,823,324 photos uploaded!

WunderBlogs® & News

Nearby

Air Quality

  Air Quality AQ Index Pollutant
Not available.

Snow Depth

Station Depth Elevation

Earthquake Activity

City Distance Mag. Time & Date
Minimum magnitude displayed is 2.5.

Coastal Water Temperatures

Place Temperature

Stations

Nearby Weather Stations

Station Location Temp. Windchill Dew Point Humidity Wind Precip. Elev Updated Type